sensor_id;sensor_type;location;lat;lon;timestamp;P1;durP1;ratioP1;P2;durP2;ratioP2
32399;SDS011;45045;45.440;9.178;2024-01-07T00:01:31;13.45;;;10.63;;
32399;SDS011;45045;45.440;9.178;2024-01-07T00:03:56;13.23;;;10.10;;
32399;SDS011;45045;45.440;9.178;2024-01-07T00:06:22;11.90;;;10.02;;
32399;SDS011;45045;45.440;9.178;2024-01-07T00:08:48;12.55;;;10.68;;
32399;SDS011;45045;45.440;9.178;2024-01-07T00:11:13;13.18;;;10.05;;
32399;SDS011;45045;45.440;9.178;2024-01-07T00:13:39;18.38;;;14.45;;
32399;SDS011;45045;45.440;9.178;2024-01-07T00:16:05;12.07;;;10.20;;
32399;SDS011;45045;45.440;9.178;2024-01-07T00:18:31;13.27;;;11.15;;
32399;SDS011;45045;45.440;9.178;2024-01-07T00:20:56;11.70;;;10.00;;
32399;SDS011;45045;45.440;9.178;2024-01-07T00:23:22;13.73;;;10.48;;
32399;SDS011;45045;45.440;9.178;2024-01-07T00:25:48;12.07;;;10.32;;
32399;SDS011;45045;45.440;9.178;2024-01-07T00:28:13;11.90;;;10.35;;
32399;SDS011;45045;45.440;9.178;2024-01-07T00:30:39;18.23;;;16.02;;
32399;SDS011;45045;45.440;9.178;2024-01-07T00:33:04;16.42;;;12.05;;
32399;SDS011;45045;45.440;9.178;2024-01-07T00:35:30;25.83;;;23.23;;
32399;SDS011;45045;45.440;9.178;2024-01-07T00:37:56;12.57;;;11.00;;
32399;SDS011;45045;45.440;9.178;2024-01-07T00:40:25;12.10;;;10.05;;
32399;SDS011;45045;45.440;9.178;2024-01-07T00:42:51;12.07;;;9.98;;
32399;SDS011;45045;45.440;9.178;2024-01-07T00:45:20;11.55;;;9.98;;
32399;SDS011;45045;45.440;9.178;2024-01-07T00:47:46;13.52;;;10.57;;
32399;SDS011;45045;45.440;9.178;2024-01-07T00:50:12;12.60;;;10.40;;
32399;SDS011;45045;45.440;9.178;2024-01-07T00:52:38;12.40;;;10.88;;
32399;SDS011;45045;45.440;9.178;2024-01-07T00:55:04;12.02;;;10.38;;
32399;SDS011;45045;45.440;9.178;2024-01-07T00:57:31;14.35;;;10.27;;
32399;SDS011;45045;45.440;9.178;2024-01-07T00:59:57;13.68;;;10.57;;
32399;SDS011;45045;45.440;9.178;2024-01-07T01:02:23;12.60;;;10.77;;
32399;SDS011;45045;45.440;9.178;2024-01-07T01:04:49;16.38;;;11.15;;
32399;SDS011;45045;45.440;9.178;2024-01-07T01:07:15;12.48;;;10.18;;
32399;SDS011;45045;45.440;9.178;2024-01-07T01:09:40;12.40;;;10.32;;
32399;SDS011;45045;45.440;9.178;2024-01-07T01:12:06;13.52;;;10.98;;
32399;SDS011;45045;45.440;9.178;2024-01-07T01:14:32;12.57;;;9.88;;
32399;SDS011;45045;45.440;9.178;2024-01-07T01:16:57;12.93;;;10.45;;
32399;SDS011;45045;45.440;9.178;2024-01-07T01:19:23;13.00;;;10.73;;
32399;SDS011;45045;45.440;9.178;2024-01-07T01:21:49;12.73;;;10.48;;
32399;SDS011;45045;45.440;9.178;2024-01-07T01:24:15;15.13;;;11.07;;
32399;SDS011;45045;45.440;9.178;2024-01-07T01:26:40;12.18;;;10.73;;
32399;SDS011;45045;45.440;9.178;2024-01-07T01:29:06;11.95;;;10.38;;
32399;SDS011;45045;45.440;9.178;2024-01-07T01:31:32;11.98;;;10.55;;
32399;SDS011;45045;45.440;9.178;2024-01-07T01:33:57;13.30;;;10.70;;
32399;SDS011;45045;45.440;9.178;2024-01-07T01:36:23;15.18;;;10.95;;
32399;SDS011;45045;45.440;9.178;2024-01-07T01:38:49;13.07;;;10.50;;
32399;SDS011;45045;45.440;9.178;2024-01-07T01:41:15;14.38;;;11.13;;
32399;SDS011;45045;45.440;9.178;2024-01-07T01:43:41;12.38;;;10.55;;
32399;SDS011;45045;45.440;9.178;2024-01-07T01:46:07;12.80;;;10.15;;
32399;SDS011;45045;45.440;9.178;2024-01-07T01:48:32;12.80;;;10.93;;
32399;SDS011;45045;45.440;9.178;2024-01-07T01:51:00;12.52;;;10.75;;
32399;SDS011;45045;45.440;9.178;2024-01-07T01:53:26;12.52;;;10.77;;
32399;SDS011;45045;45.440;9.178;2024-01-07T01:55:52;11.63;;;10.05;;
32399;SDS011;45045;45.440;9.178;2024-01-07T01:58:19;13.45;;;10.68;;
32399;SDS011;45045;45.440;9.178;2024-01-07T02:00:46;13.25;;;10.65;;
32399;SDS011;45045;45.440;9.178;2024-01-07T02:03:12;12.73;;;10.70;;
32399;SDS011;45045;45.440;9.178;2024-01-07T02:05:38;13.23;;;10.93;;
32399;SDS011;45045;45.440;9.178;2024-01-07T02:08:04;14.15;;;11.25;;
32399;SDS011;45045;45.440;9.178;2024-01-07T02:10:31;13.77;;;10.48;;
32399;SDS011;45045;45.440;9.178;2024-01-07T02:12:59;12.50;;;10.32;;
32399;SDS011;45045;45.440;9.178;2024-01-07T02:15:25;13.02;;;10.48;;
32399;SDS011;45045;45.440;9.178;2024-01-07T02:17:51;12.40;;;10.82;;
32399;SDS011;45045;45.440;9.178;2024-01-07T02:20:17;12.70;;;10.15;;
32399;SDS011;45045;45.440;9.178;2024-01-07T02:22:43;12.73;;;10.85;;
32399;SDS011;45045;45.440;9.178;2024-01-07T02:25:08;13.02;;;11.38;;
32399;SDS011;45045;45.440;9.178;2024-01-07T02:27:34;14.05;;;10.63;;
32399;SDS011;45045;45.440;9.178;2024-01-07T02:30:00;13.85;;;11.15;;
32399;SDS011;45045;45.440;9.178;2024-01-07T02:32:25;12.82;;;10.55;;
32399;SDS011;45045;45.440;9.178;2024-01-07T02:34:51;14.18;;;11.23;;
32399;SDS011;45045;45.440;9.178;2024-01-07T02:37:17;12.32;;;10.65;;
32399;SDS011;45045;45.440;9.178;2024-01-07T02:39:44;13.25;;;10.90;;
32399;SDS011;45045;45.440;9.178;2024-01-07T02:42:09;13.70;;;10.50;;
32399;SDS011;45045;45.440;9.178;2024-01-07T02:44:35;13.48;;;10.82;;
32399;SDS011;45045;45.440;9.178;2024-01-07T02:47:01;12.05;;;10.48;;
32399;SDS011;45045;45.440;9.178;2024-01-07T02:49:27;14.18;;;12.15;;
32399;SDS011;45045;45.440;9.178;2024-01-07T02:51:53;12.88;;;10.68;;
32399;SDS011;45045;45.440;9.178;2024-01-07T02:54:19;12.93;;;11.15;;
32399;SDS011;45045;45.440;9.178;2024-01-07T02:56:44;12.50;;;10.18;;
32399;SDS011;45045;45.440;9.178;2024-01-07T02:59:10;13.80;;;11.02;;
32399;SDS011;45045;45.440;9.178;2024-01-07T03:01:36;14.18;;;10.63;;
32399;SDS011;45045;45.440;9.178;2024-01-07T03:04:05;13.30;;;10.55;;
32399;SDS011;45045;45.440;9.178;2024-01-07T03:06:32;13.18;;;10.88;;
32399;SDS011;45045;45.440;9.178;2024-01-07T03:08:58;13.05;;;10.73;;
32399;SDS011;45045;45.440;9.178;2024-01-07T03:11:24;11.60;;;10.02;;
32399;SDS011;45045;45.440;9.178;2024-01-07T03:13:49;11.93;;;10.65;;
32399;SDS011;45045;45.440;9.178;2024-01-07T03:16:18;11.90;;;10.40;;
32399;SDS011;45045;45.440;9.178;2024-01-07T03:18:45;13.25;;;11.35;;
32399;SDS011;45045;45.440;9.178;2024-01-07T03:21:20;12.70;;;10.52;;
32399;SDS011;45045;45.440;9.178;2024-01-07T03:23:47;12.73;;;10.52;;
32399;SDS011;45045;45.440;9.178;2024-01-07T03:26:14;12.18;;;10.82;;
32399;SDS011;45045;45.440;9.178;2024-01-07T03:28:40;15.45;;;12.07;;
32399;SDS011;45045;45.440;9.178;2024-01-07T03:31:13;12.38;;;10.60;;
32399;SDS011;45045;45.440;9.178;2024-01-07T03:33:40;12.65;;;11.35;;
32399;SDS011;45045;45.440;9.178;2024-01-07T03:36:10;13.25;;;11.18;;
32399;SDS011;45045;45.440;9.178;2024-01-07T03:38:38;13.50;;;11.13;;
32399;SDS011;45045;45.440;9.178;2024-01-07T03:41:04;12.88;;;10.65;;
32399;SDS011;45045;45.440;9.178;2024-01-07T03:43:30;14.30;;;11.35;;
32399;SDS011;45045;45.440;9.178;2024-01-07T03:45:56;13.55;;;11.48;;
32399;SDS011;45045;45.440;9.178;2024-01-07T03:48:22;13.75;;;11.65;;
32399;SDS011;45045;45.440;9.178;2024-01-07T03:50:47;14.80;;;11.57;;
32399;SDS011;45045;45.440;9.178;2024-01-07T03:53:13;11.82;;;10.63;;
32399;SDS011;45045;45.440;9.178;2024-01-07T03:55:39;12.80;;;10.85;;
32399;SDS011;45045;45.440;9.178;2024-01-07T03:58:05;13.05;;;11.25;;
32399;SDS011;45045;45.440;9.178;2024-01-07T04:00:31;13.63;;;11.40;;
32399;SDS011;45045;45.440;9.178;2024-01-07T04:02:57;12.55;;;10.82;;
32399;SDS011;45045;45.440;9.178;2024-01-07T04:05:23;14.40;;;11.55;;
32399;SDS011;45045;45.440;9.178;2024-01-07T04:07:48;16.25;;;11.70;;
32399;SDS011;45045;45.440;9.178;2024-01-07T04:10:17;11.95;;;10.40;;
32399;SDS011;45045;45.440;9.178;2024-01-07T04:12:44;12.85;;;11.32;;
32399;SDS011;45045;45.440;9.178;2024-01-07T04:15:10;12.88;;;11.20;;
32399;SDS011;45045;45.440;9.178;2024-01-07T04:17:37;13.20;;;11.30;;
32399;SDS011;45045;45.440;9.178;2024-01-07T04:20:02;14.32;;;11.20;;
32399;SDS011;45045;45.440;9.178;2024-01-07T04:22:29;13.85;;;11.77;;
32399;SDS011;45045;45.440;9.178;2024-01-07T04:24:54;13.30;;;11.55;;
32399;SDS011;45045;45.440;9.178;2024-01-07T04:27:20;14.48;;;11.68;;
32399;SDS011;45045;45.440;9.178;2024-01-07T04:29:46;13.98;;;10.90;;
32399;SDS011;45045;45.440;9.178;2024-01-07T04:32:11;14.07;;;11.38;;
32399;SDS011;45045;45.440;9.178;2024-01-07T04:34:37;14.35;;;11.90;;
32399;SDS011;45045;45.440;9.178;2024-01-07T04:37:03;14.82;;;11.43;;
32399;SDS011;45045;45.440;9.178;2024-01-07T04:39:28;16.23;;;12.52;;
32399;SDS011;45045;45.440;9.178;2024-01-07T04:41:54;13.45;;;11.02;;
32399;SDS011;45045;45.440;9.178;2024-01-07T04:44:19;27.35;;;24.65;;
32399;SDS011;45045;45.440;9.178;2024-01-07T04:46:46;16.10;;;14.20;;
32399;SDS011;45045;45.440;9.178;2024-01-07T04:49:12;13.15;;;11.32;;
32399;SDS011;45045;45.440;9.178;2024-01-07T04:51:38;14.90;;;12.07;;
32399;SDS011;45045;45.440;9.178;2024-01-07T04:54:04;13.68;;;11.52;;
32399;SDS011;45045;45.440;9.178;2024-01-07T04:56:30;15.27;;;13.07;;
32399;SDS011;45045;45.440;9.178;2024-01-07T04:58:56;13.20;;;11.77;;
32399;SDS011;45045;45.440;9.178;2024-01-07T05:01:22;13.55;;;11.98;;
32399;SDS011;45045;45.440;9.178;2024-01-07T05:03:48;13.90;;;11.80;;
32399;SDS011;45045;45.440;9.178;2024-01-07T05:06:14;14.40;;;12.27;;
32399;SDS011;45045;45.440;9.178;2024-01-07T05:08:40;16.85;;;11.90;;
32399;SDS011;45045;45.440;9.178;2024-01-07T05:11:06;14.40;;;12.30;;
32399;SDS011;45045;45.440;9.178;2024-01-07T05:13:32;14.95;;;11.82;;
32399;SDS011;45045;45.440;9.178;2024-01-07T05:15:58;16.83;;;13.45;;
32399;SDS011;45045;45.440;9.178;2024-01-07T05:18:24;14.93;;;12.80;;
32399;SDS011;45045;45.440;9.178;2024-01-07T05:20:50;14.82;;;12.88;;
32399;SDS011;45045;45.440;9.178;2024-01-07T05:23:16;13.40;;;11.70;;
32399;SDS011;45045;45.440;9.178;2024-01-07T05:25:44;14.75;;;12.43;;
32399;SDS011;45045;45.440;9.178;2024-01-07T05:28:11;14.00;;;12.07;;
32399;SDS011;45045;45.440;9.178;2024-01-07T05:30:41;15.45;;;12.40;;
32399;SDS011;45045;45.440;9.178;2024-01-07T05:33:09;15.73;;;13.30;;
32399;SDS011;45045;45.440;9.178;2024-01-07T05:35:35;14.10;;;12.20;;
32399;SDS011;45045;45.440;9.178;2024-01-07T05:38:00;16.95;;;13.35;;
32399;SDS011;45045;45.440;9.178;2024-01-07T05:40:26;16.05;;;13.30;;
32399;SDS011;45045;45.440;9.178;2024-01-07T05:42:52;17.58;;;14.57;;
32399;SDS011;45045;45.440;9.178;2024-01-07T05:45:17;16.38;;;13.30;;
32399;SDS011;45045;45.440;9.178;2024-01-07T05:47:43;17.27;;;13.45;;
32399;SDS011;45045;45.440;9.178;2024-01-07T05:50:09;17.48;;;14.20;;
32399;SDS011;45045;45.440;9.178;2024-01-07T05:52:35;17.13;;;13.68;;
32399;SDS011;45045;45.440;9.178;2024-01-07T05:55:01;16.48;;;13.77;;
32399;SDS011;45045;45.440;9.178;2024-01-07T05:57:27;15.57;;;13.15;;
32399;SDS011;45045;45.440;9.178;2024-01-07T05:59:53;17.35;;;12.80;;
32399;SDS011;45045;45.440;9.178;2024-01-07T06:02:18;15.45;;;13.82;;
32399;SDS011;45045;45.440;9.178;2024-01-07T06:04:44;15.40;;;12.73;;
32399;SDS011;45045;45.440;9.178;2024-01-07T06:07:10;16.38;;;13.23;;
32399;SDS011;45045;45.440;9.178;2024-01-07T06:09:35;16.90;;;12.63;;
32399;SDS011;45045;45.440;9.178;2024-01-07T06:12:01;14.32;;;12.27;;
32399;SDS011;45045;45.440;9.178;2024-01-07T06:14:27;15.75;;;12.18;;
32399;SDS011;45045;45.440;9.178;2024-01-07T06:16:52;14.43;;;11.45;;
32399;SDS011;45045;45.440;9.178;2024-01-07T06:19:18;14.88;;;12.30;;
32399;SDS011;45045;45.440;9.178;2024-01-07T06:21:44;14.38;;;12.30;;
32399;SDS011;45045;45.440;9.178;2024-01-07T06:24:10;14.85;;;12.10;;
32399;SDS011;45045;45.440;9.178;2024-01-07T06:26:36;13.75;;;12.20;;
32399;SDS011;45045;45.440;9.178;2024-01-07T06:29:02;13.10;;;10.70;;
32399;SDS011;45045;45.440;9.178;2024-01-07T06:31:28;14.73;;;12.65;;
32399;SDS011;45045;45.440;9.178;2024-01-07T06:33:53;14.52;;;11.65;;
32399;SDS011;45045;45.440;9.178;2024-01-07T06:36:23;13.05;;;11.35;;
32399;SDS011;45045;45.440;9.178;2024-01-07T06:38:50;12.80;;;11.20;;
32399;SDS011;45045;45.440;9.178;2024-01-07T06:41:15;13.60;;;12.15;;
32399;SDS011;45045;45.440;9.178;2024-01-07T06:43:41;14.23;;;11.43;;
32399;SDS011;45045;45.440;9.178;2024-01-07T06:46:07;15.23;;;11.65;;
32399;SDS011;45045;45.440;9.178;2024-01-07T06:48:32;13.48;;;10.88;;
32399;SDS011;45045;45.440;9.178;2024-01-07T06:50:58;11.73;;;10.13;;
32399;SDS011;45045;45.440;9.178;2024-01-07T06:53:23;12.82;;;10.50;;
32399;SDS011;45045;45.440;9.178;2024-01-07T06:55:49;12.93;;;10.15;;
32399;SDS011;45045;45.440;9.178;2024-01-07T06:58:15;11.40;;;9.90;;
32399;SDS011;45045;45.440;9.178;2024-01-07T07:00:41;12.40;;;9.80;;
32399;SDS011;45045;45.440;9.178;2024-01-07T07:03:08;12.32;;;10.25;;
32399;SDS011;45045;45.440;9.178;2024-01-07T07:05:34;11.27;;;9.38;;
32399;SDS011;45045;45.440;9.178;2024-01-07T07:07:59;9.60;;;8.50;;
32399;SDS011;45045;45.440;9.178;2024-01-07T07:10:26;11.48;;;8.98;;
32399;SDS011;45045;45.440;9.178;2024-01-07T07:12:51;10.55;;;8.82;;
32399;SDS011;45045;45.440;9.178;2024-01-07T07:15:18;10.00;;;8.88;;
32399;SDS011;45045;45.440;9.178;2024-01-07T07:17:44;11.25;;;9.38;;
32399;SDS011;45045;45.440;9.178;2024-01-07T07:20:09;11.77;;;9.75;;
32399;SDS011;45045;45.440;9.178;2024-01-07T07:22:36;11.80;;;10.25;;
32399;SDS011;45045;45.440;9.178;2024-01-07T07:25:01;10.63;;;9.50;;
32399;SDS011;45045;45.440;9.178;2024-01-07T07:27:27;11.38;;;9.23;;
32399;SDS011;45045;45.440;9.178;2024-01-07T07:29:53;11.80;;;9.98;;
32399;SDS011;45045;45.440;9.178;2024-01-07T07:32:18;11.55;;;9.63;;
32399;SDS011;45045;45.440;9.178;2024-01-07T07:34:44;14.23;;;10.00;;
32399;SDS011;45045;45.440;9.178;2024-01-07T07:37:09;14.63;;;10.40;;
32399;SDS011;45045;45.440;9.178;2024-01-07T07:39:35;11.07;;;9.52;;
32399;SDS011;45045;45.440;9.178;2024-01-07T07:42:01;10.60;;;9.02;;
32399;SDS011;45045;45.440;9.178;2024-01-07T07:44:26;13.25;;;9.30;;
32399;SDS011;45045;45.440;9.178;2024-01-07T07:46:52;10.82;;;9.30;;
32399;SDS011;45045;45.440;9.178;2024-01-07T07:49:18;10.73;;;8.88;;
32399;SDS011;45045;45.440;9.178;2024-01-07T07:51:43;11.23;;;8.50;;
32399;SDS011;45045;45.440;9.178;2024-01-07T07:54:09;10.57;;;8.82;;
32399;SDS011;45045;45.440;9.178;2024-01-07T07:56:34;10.43;;;9.27;;
32399;SDS011;45045;45.440;9.178;2024-01-07T07:59:01;9.40;;;8.13;;
32399;SDS011;45045;45.440;9.178;2024-01-07T08:01:27;10.73;;;8.48;;
32399;SDS011;45045;45.440;9.178;2024-01-07T08:03:53;9.93;;;8.50;;
32399;SDS011;45045;45.440;9.178;2024-01-07T08:06:19;10.95;;;8.82;;
32399;SDS011;45045;45.440;9.178;2024-01-07T08:08:44;12.05;;;9.77;;
32399;SDS011;45045;45.440;9.178;2024-01-07T08:11:10;11.23;;;9.35;;
32399;SDS011;45045;45.440;9.178;2024-01-07T08:13:36;10.73;;;9.40;;
32399;SDS011;45045;45.440;9.178;2024-01-07T08:16:03;13.30;;;10.23;;
32399;SDS011;45045;45.440;9.178;2024-01-07T08:18:30;12.25;;;8.45;;
32399;SDS011;45045;45.440;9.178;2024-01-07T08:20:56;11.43;;;10.02;;
32399;SDS011;45045;45.440;9.178;2024-01-07T08:23:22;10.55;;;8.90;;
32399;SDS011;45045;45.440;9.178;2024-01-07T08:25:49;10.98;;;9.20;;
32399;SDS011;45045;45.440;9.178;2024-01-07T08:28:16;9.55;;;8.15;;
32399;SDS011;45045;45.440;9.178;2024-01-07T08:30:42;10.20;;;8.95;;
32399;SDS011;45045;45.440;9.178;2024-01-07T08:33:07;10.20;;;8.45;;
32399;SDS011;45045;45.440;9.178;2024-01-07T08:35:33;8.90;;;7.88;;
32399;SDS011;45045;45.440;9.178;2024-01-07T08:37:58;9.60;;;7.65;;
32399;SDS011;45045;45.440;9.178;2024-01-07T08:40:24;8.95;;;7.32;;
32399;SDS011;45045;45.440;9.178;2024-01-07T08:42:50;8.40;;;7.32;;
32399;SDS011;45045;45.440;9.178;2024-01-07T08:45:15;7.90;;;6.50;;
32399;SDS011;45045;45.440;9.178;2024-01-07T08:47:41;7.68;;;5.90;;
32399;SDS011;45045;45.440;9.178;2024-01-07T08:50:06;9.32;;;6.88;;
32399;SDS011;45045;45.440;9.178;2024-01-07T08:52:32;7.35;;;5.85;;
32399;SDS011;45045;45.440;9.178;2024-01-07T08:55:00;6.80;;;5.57;;
32399;SDS011;45045;45.440;9.178;2024-01-07T08:57:27;8.45;;;6.88;;
32399;SDS011;45045;45.440;9.178;2024-01-07T08:59:52;8.43;;;6.18;;
32399;SDS011;45045;45.440;9.178;2024-01-07T09:02:18;6.93;;;6.15;;
32399;SDS011;45045;45.440;9.178;2024-01-07T09:04:44;9.15;;;6.50;;
32399;SDS011;45045;45.440;9.178;2024-01-07T09:07:09;7.97;;;6.60;;
32399;SDS011;45045;45.440;9.178;2024-01-07T09:09:35;7.90;;;6.25;;
32399;SDS011;45045;45.440;9.178;2024-01-07T09:12:01;7.93;;;6.15;;
32399;SDS011;45045;45.440;9.178;2024-01-07T09:14:28;6.75;;;5.55;;
32399;SDS011;45045;45.440;9.178;2024-01-07T09:16:55;8.18;;;5.68;;
32399;SDS011;45045;45.440;9.178;2024-01-07T09:19:20;6.60;;;5.60;;
32399;SDS011;45045;45.440;9.178;2024-01-07T09:21:46;5.82;;;4.15;;
32399;SDS011;45045;45.440;9.178;2024-01-07T09:24:12;5.65;;;4.25;;
32399;SDS011;45045;45.440;9.178;2024-01-07T09:26:39;6.93;;;6.22;;
32399;SDS011;45045;45.440;9.178;2024-01-07T09:29:04;6.85;;;5.15;;
32399;SDS011;45045;45.440;9.178;2024-01-07T09:31:30;7.07;;;5.45;;
32399;SDS011;45045;45.440;9.178;2024-01-07T09:33:56;6.15;;;5.10;;
32399;SDS011;45045;45.440;9.178;2024-01-07T09:36:21;6.55;;;5.05;;
32399;SDS011;45045;45.440;9.178;2024-01-07T09:38:47;13.00;;;9.85;;
32399;SDS011;45045;45.440;9.178;2024-01-07T09:41:12;9.90;;;6.28;;
32399;SDS011;45045;45.440;9.178;2024-01-07T09:43:38;10.77;;;7.93;;
32399;SDS011;45045;45.440;9.178;2024-01-07T09:46:04;7.35;;;6.22;;
32399;SDS011;45045;45.440;9.178;2024-01-07T09:48:29;6.80;;;5.30;;
32399;SDS011;45045;45.440;9.178;2024-01-07T09:50:56;6.60;;;5.05;;
32399;SDS011;45045;45.440;9.178;2024-01-07T09:53:25;7.47;;;4.85;;
32399;SDS011;45045;45.440;9.178;2024-01-07T09:58:32;5.25;;;4.15;;
32399;SDS011;45045;45.440;9.178;2024-01-07T10:00:58;5.78;;;4.75;;
32399;SDS011;45045;45.440;9.178;2024-01-07T10:03:24;6.32;;;4.80;;
32399;SDS011;45045;45.440;9.178;2024-01-07T10:05:51;5.95;;;4.60;;
32399;SDS011;45045;45.440;9.178;2024-01-07T10:08:17;6.07;;;4.43;;
32399;SDS011;45045;45.440;9.178;2024-01-07T10:10:43;6.55;;;4.50;;
32399;SDS011;45045;45.440;9.178;2024-01-07T10:13:08;6.18;;;4.10;;
32399;SDS011;45045;45.440;9.178;2024-01-07T10:15:34;7.22;;;3.90;;
32399;SDS011;45045;45.440;9.178;2024-01-07T10:18:03;6.25;;;4.13;;
32399;SDS011;45045;45.440;9.178;2024-01-07T10:20:33;6.13;;;4.78;;
32399;SDS011;45045;45.440;9.178;2024-01-07T10:22:59;5.80;;;4.30;;
32399;SDS011;45045;45.440;9.178;2024-01-07T10:25:31;5.35;;;4.28;;
32399;SDS011;45045;45.440;9.178;2024-01-07T10:28:00;5.07;;;3.88;;
32399;SDS011;45045;45.440;9.178;2024-01-07T10:30:27;6.32;;;4.60;;
32399;SDS011;45045;45.440;9.178;2024-01-07T10:32:59;6.07;;;4.63;;
32399;SDS011;45045;45.440;9.178;2024-01-07T10:35:31;8.50;;;5.13;;
32399;SDS011;45045;45.440;9.178;2024-01-07T10:37:59;5.20;;;3.90;;
32399;SDS011;45045;45.440;9.178;2024-01-07T10:40:26;6.45;;;3.85;;
32399;SDS011;45045;45.440;9.178;2024-01-07T10:42:52;7.53;;;5.70;;
32399;SDS011;45045;45.440;9.178;2024-01-07T10:45:19;7.50;;;5.88;;
32399;SDS011;45045;45.440;9.178;2024-01-07T10:47:48;10.25;;;5.10;;
32399;SDS011;45045;45.440;9.178;2024-01-07T10:50:15;6.22;;;4.75;;
32399;SDS011;45045;45.440;9.178;2024-01-07T10:52:42;5.85;;;4.75;;
32399;SDS011;45045;45.440;9.178;2024-01-07T10:55:13;9.07;;;6.32;;
32399;SDS011;45045;45.440;9.178;2024-01-07T10:57:43;30.30;;;22.35;;
32399;SDS011;45045;45.440;9.178;2024-01-07T11:00:11;28.52;;;19.33;;
32399;SDS011;45045;45.440;9.178;2024-01-07T11:02:51;24.40;;;19.52;;
32399;SDS011;45045;45.440;9.178;2024-01-07T11:05:31;15.70;;;10.32;;
32399;SDS011;45045;45.440;9.178;2024-01-07T11:08:05;32.97;;;25.52;;
32399;SDS011;45045;45.440;9.178;2024-01-07T11:10:38;54.67;;;41.47;;
32399;SDS011;45045;45.440;9.178;2024-01-07T11:13:08;10.18;;;7.45;;
32399;SDS011;45045;45.440;9.178;2024-01-07T11:18:19;7.50;;;5.38;;
32399;SDS011;45045;45.440;9.178;2024-01-07T11:20:46;6.68;;;5.20;;
32399;SDS011;45045;45.440;9.178;2024-01-07T11:26:02;7.10;;;5.53;;
32399;SDS011;45045;45.440;9.178;2024-01-07T11:31:18;7.60;;;5.93;;
32399;SDS011;45045;45.440;9.178;2024-01-07T11:33:45;6.65;;;5.57;;
32399;SDS011;45045;45.440;9.178;2024-01-07T11:36:13;10.38;;;8.55;;
32399;SDS011;45045;45.440;9.178;2024-01-07T11:38:45;9.68;;;6.03;;
32399;SDS011;45045;45.440;9.178;2024-01-07T11:41:13;7.53;;;6.20;;
32399;SDS011;45045;45.440;9.178;2024-01-07T11:43:54;8.77;;;5.95;;
32399;SDS011;45045;45.440;9.178;2024-01-07T11:46:22;8.13;;;6.05;;
32399;SDS011;45045;45.440;9.178;2024-01-07T11:48:48;16.38;;;10.80;;
32399;SDS011;45045;45.440;9.178;2024-01-07T11:51:15;17.13;;;12.27;;
32399;SDS011;45045;45.440;9.178;2024-01-07T11:53:41;9.25;;;7.32;;
32399;SDS011;45045;45.440;9.178;2024-01-07T11:56:08;8.60;;;6.40;;
32399;SDS011;45045;45.440;9.178;2024-01-07T11:58:34;7.65;;;6.07;;
32399;SDS011;45045;45.440;9.178;2024-01-07T12:00:59;7.72;;;6.30;;
32399;SDS011;45045;45.440;9.178;2024-01-07T12:03:26;21.88;;;14.27;;
32399;SDS011;45045;45.440;9.178;2024-01-07T12:05:51;16.52;;;11.10;;
32399;SDS011;45045;45.440;9.178;2024-01-07T12:08:17;12.73;;;7.40;;
32399;SDS011;45045;45.440;9.178;2024-01-07T12:10:43;8.65;;;6.10;;
32399;SDS011;45045;45.440;9.178;2024-01-07T12:13:10;9.02;;;7.05;;
32399;SDS011;45045;45.440;9.178;2024-01-07T12:15:37;7.97;;;6.45;;
32399;SDS011;45045;45.440;9.178;2024-01-07T12:18:04;8.05;;;6.78;;
32399;SDS011;45045;45.440;9.178;2024-01-07T12:20:29;8.55;;;6.70;;
32399;SDS011;45045;45.440;9.178;2024-01-07T12:22:56;6.65;;;5.57;;
32399;SDS011;45045;45.440;9.178;2024-01-07T12:25:22;7.38;;;6.15;;
32399;SDS011;45045;45.440;9.178;2024-01-07T12:27:51;8.20;;;6.57;;
32399;SDS011;45045;45.440;9.178;2024-01-07T12:30:21;9.02;;;7.13;;
32399;SDS011;45045;45.440;9.178;2024-01-07T12:32:51;10.27;;;7.10;;
32399;SDS011;45045;45.440;9.178;2024-01-07T12:35:17;9.35;;;6.57;;
32399;SDS011;45045;45.440;9.178;2024-01-07T12:37:43;6.60;;;5.38;;
32399;SDS011;45045;45.440;9.178;2024-01-07T12:40:09;8.75;;;6.07;;
32399;SDS011;45045;45.440;9.178;2024-01-07T12:42:36;8.82;;;6.18;;
32399;SDS011;45045;45.440;9.178;2024-01-07T12:45:05;7.30;;;5.20;;
32399;SDS011;45045;45.440;9.178;2024-01-07T12:47:31;8.23;;;5.55;;
32399;SDS011;45045;45.440;9.178;2024-01-07T12:49:57;8.18;;;5.53;;
32399;SDS011;45045;45.440;9.178;2024-01-07T12:52:23;6.72;;;4.97;;
32399;SDS011;45045;45.440;9.178;2024-01-07T12:54:49;5.85;;;4.70;;
32399;SDS011;45045;45.440;9.178;2024-01-07T12:57:14;6.93;;;4.88;;
32399;SDS011;45045;45.440;9.178;2024-01-07T12:59:40;8.27;;;4.97;;
32399;SDS011;45045;45.440;9.178;2024-01-07T13:02:06;6.43;;;4.53;;
32399;SDS011;45045;45.440;9.178;2024-01-07T13:04:31;5.35;;;3.90;;
32399;SDS011;45045;45.440;9.178;2024-01-07T13:06:57;10.82;;;7.55;;
32399;SDS011;45045;45.440;9.178;2024-01-07T13:09:22;6.18;;;4.32;;
32399;SDS011;45045;45.440;9.178;2024-01-07T13:11:49;5.88;;;4.07;;
32399;SDS011;45045;45.440;9.178;2024-01-07T13:14:14;5.15;;;3.90;;
32399;SDS011;45045;45.440;9.178;2024-01-07T13:16:40;6.28;;;3.83;;
32399;SDS011;45045;45.440;9.178;2024-01-07T13:19:05;5.78;;;4.20;;
32399;SDS011;45045;45.440;9.178;2024-01-07T13:21:31;6.50;;;4.07;;
32399;SDS011;45045;45.440;9.178;2024-01-07T13:23:58;6.13;;;3.60;;
32399;SDS011;45045;45.440;9.178;2024-01-07T13:26:25;5.72;;;3.50;;
32399;SDS011;45045;45.440;9.178;2024-01-07T13:28:51;4.90;;;3.47;;
32399;SDS011;45045;45.440;9.178;2024-01-07T13:31:17;6.32;;;3.67;;
32399;SDS011;45045;45.440;9.178;2024-01-07T13:33:42;7.25;;;4.63;;
32399;SDS011;45045;45.440;9.178;2024-01-07T13:36:08;7.50;;;4.32;;
32399;SDS011;45045;45.440;9.178;2024-01-07T13:38:35;6.20;;;4.40;;
32399;SDS011;45045;45.440;9.178;2024-01-07T13:41:03;6.80;;;4.93;;
32399;SDS011;45045;45.440;9.178;2024-01-07T13:43:29;7.38;;;5.25;;
32399;SDS011;45045;45.440;9.178;2024-01-07T13:45:55;8.23;;;5.70;;
32399;SDS011;45045;45.440;9.178;2024-01-07T13:48:21;7.55;;;6.13;;
32399;SDS011;45045;45.440;9.178;2024-01-07T13:50:46;8.98;;;6.18;;
32399;SDS011;45045;45.440;9.178;2024-01-07T13:53:14;9.02;;;6.07;;
32399;SDS011;45045;45.440;9.178;2024-01-07T13:55:40;7.25;;;5.53;;
32399;SDS011;45045;45.440;9.178;2024-01-07T13:58:05;7.32;;;5.15;;
32399;SDS011;45045;45.440;9.178;2024-01-07T14:00:31;6.72;;;4.85;;
32399;SDS011;45045;45.440;9.178;2024-01-07T14:02:57;6.05;;;4.78;;
32399;SDS011;45045;45.440;9.178;2024-01-07T14:05:22;5.65;;;3.85;;
32399;SDS011;45045;45.440;9.178;2024-01-07T14:07:48;5.68;;;3.83;;
32399;SDS011;45045;45.440;9.178;2024-01-07T14:10:13;4.90;;;3.40;;
32399;SDS011;45045;45.440;9.178;2024-01-07T14:12:39;5.28;;;3.63;;
32399;SDS011;45045;45.440;9.178;2024-01-07T14:15:06;4.40;;;3.30;;
32399;SDS011;45045;45.440;9.178;2024-01-07T14:17:34;4.35;;;3.42;;
32399;SDS011;45045;45.440;9.178;2024-01-07T14:19:59;5.10;;;3.55;;
32399;SDS011;45045;45.440;9.178;2024-01-07T14:22:25;4.68;;;3.47;;
32399;SDS011;45045;45.440;9.178;2024-01-07T14:24:51;6.10;;;3.83;;
32399;SDS011;45045;45.440;9.178;2024-01-07T14:27:16;5.18;;;3.67;;
32399;SDS011;45045;45.440;9.178;2024-01-07T14:29:43;6.80;;;3.85;;
32399;SDS011;45045;45.440;9.178;2024-01-07T14:32:09;5.38;;;4.00;;
32399;SDS011;45045;45.440;9.178;2024-01-07T14:34:38;5.70;;;4.45;;
32399;SDS011;45045;45.440;9.178;2024-01-07T14:37:06;5.25;;;3.80;;
32399;SDS011;45045;45.440;9.178;2024-01-07T14:39:38;5.68;;;4.07;;